createdAt,value
2023-03-21T00:04:44.549Z,12.43
2023-03-21T00:10:04.784Z,12.42
2023-03-21T00:15:09.455Z,12.73
2023-03-21T00:20:16.201Z,12.84
2023-03-21T00:25:20.528Z,12.33
2023-03-21T00:30:23.930Z,12.67
2023-03-21T00:40:51.851Z,13.16
2023-03-21T00:45:54.674Z,13.09
2023-03-21T00:50:59.353Z,12.64
2023-03-21T00:56:03.514Z,12.78
2023-03-21T01:01:09.328Z,12.43
2023-03-21T01:06:13.777Z,13.09
2023-03-21T01:11:20.556Z,13.18
2023-03-21T01:16:23.322Z,13.07
2023-03-21T01:21:26.339Z,12.90
2023-03-21T01:26:30.777Z,13.82
2023-03-21T01:31:33.737Z,12.96
2023-03-21T01:36:36.944Z,13.19
2023-03-21T01:41:45.037Z,13.00
2023-03-21T01:47:11.180Z,13.45
2023-03-21T01:52:39.054Z,13.19
2023-03-21T01:58:07.312Z,12.78
2023-03-21T02:03:52.126Z,12.91
2023-03-21T02:09:10.784Z,12.19
2023-03-21T02:14:26.624Z,12.32
2023-03-21T02:20:12.856Z,12.79
2023-03-21T02:26:00.972Z,11.99
2023-03-21T02:31:19.891Z,12.38
2023-03-21T02:36:31.545Z,12.46
2023-03-21T02:41:46.714Z,12.20
2023-03-21T02:47:03.170Z,12.46
2023-03-21T02:52:17.154Z,12.21
2023-03-21T02:57:40.053Z,12.39
2023-03-21T03:02:47.424Z,12.88
2023-03-21T03:08:17.270Z,12.32
2023-03-21T03:13:36.641Z,12.85
2023-03-21T03:18:46.242Z,12.78
2023-03-21T03:23:52.348Z,13.24
2023-03-21T03:29:01.812Z,13.43
2023-03-21T03:34:09.048Z,12.82
2023-03-21T03:39:16.867Z,12.74
2023-03-21T03:44:28.392Z,12.77
2023-03-21T03:49:43.122Z,12.42
2023-03-21T03:54:48.730Z,12.48
2023-03-21T03:59:53.891Z,12.72
2023-03-21T04:05:21.230Z,12.89
2023-03-21T04:10:24.256Z,12.93
2023-03-21T04:15:28.776Z,13.19
2023-03-21T04:20:38.812Z,12.69
2023-03-21T04:25:55.463Z,13.44
2023-03-21T04:31:05.249Z,12.93
2023-03-21T04:36:27.322Z,13.58
2023-03-21T04:41:33.487Z,13.54
2023-03-21T04:46:38.483Z,13.73
2023-03-21T04:51:43.993Z,13.40
2023-03-21T04:56:48.535Z,13.21
2023-03-21T05:01:52.868Z,13.74
2023-03-21T05:06:55.879Z,13.73
2023-03-21T05:11:58.595Z,13.88
2023-03-21T05:17:05.122Z,14.07
2023-03-21T05:22:10.803Z,13.84
2023-03-21T05:27:26.083Z,13.50
2023-03-21T05:32:30.449Z,13.21
2023-03-21T05:37:33.549Z,13.23
2023-03-21T05:42:36.590Z,13.19
2023-03-21T05:47:49.498Z,13.46
2023-03-21T05:52:52.912Z,13.48
2023-03-21T05:57:56.030Z,13.48
2023-03-21T06:03:04.712Z,13.62
2023-03-21T06:08:22.488Z,13.42
2023-03-21T06:13:26.162Z,13.81
2023-03-21T06:18:30.728Z,13.50
2023-03-21T06:23:56.507Z,12.87
2023-03-21T06:28:59.454Z,13.51
2023-03-21T06:34:03.934Z,13.59
2023-03-21T06:39:08.751Z,13.83
2023-03-21T06:44:14.829Z,13.64
2023-03-21T06:49:27.878Z,13.55
2023-03-21T06:54:34.640Z,14.02
2023-03-21T06:59:44.703Z,13.96
2023-03-21T07:04:54.942Z,14.26
2023-03-21T07:10:00.421Z,14.28
2023-03-21T07:15:09.439Z,14.30
2023-03-21T07:20:14.858Z,14.36
2023-03-21T07:25:20.026Z,14.33
2023-03-21T07:30:23.516Z,14.56
2023-03-21T07:35:27.681Z,14.82
2023-03-21T07:40:30.799Z,14.47
2023-03-21T07:45:33.937Z,14.90
2023-03-21T07:50:38.031Z,15.19
2023-03-21T07:55:43.208Z,14.81
2023-03-21T08:00:46.233Z,13.48
2023-03-21T08:05:50.691Z,14.66
2023-03-21T08:10:53.515Z,14.75
2023-03-21T08:15:56.242Z,14.69
2023-03-21T08:21:00.446Z,14.92
2023-03-21T08:26:03.441Z,15.09
2023-03-21T08:31:08.952Z,14.91
2023-03-21T08:36:13.631Z,14.90
2023-03-21T08:41:16.560Z,15.10
2023-03-21T08:46:19.325Z,14.98
2023-03-21T08:51:23.537Z,15.05
2023-03-21T08:56:26.584Z,15.05
2023-03-21T09:01:29.711Z,14.98
2023-03-21T09:06:34.101Z,15.40
2023-03-21T09:11:37.173Z,15.66
2023-03-21T09:16:40.198Z,14.95
2023-03-21T09:21:44.703Z,15.35
2023-03-21T09:26:53.466Z,15.58
2023-03-21T09:31:57.595Z,15.65
2023-03-21T09:37:02.286Z,16.46
2023-03-21T09:42:19.658Z,15.80
2023-03-21T09:47:25.077Z,16.26
2023-03-21T09:52:34.672Z,16.52
2023-03-21T09:57:41.770Z,16.74
2023-03-21T10:02:47.203Z,16.80
2023-03-21T10:07:57.906Z,16.77
2023-03-21T10:13:00.780Z,16.28
2023-03-21T10:18:07.435Z,16.97
2023-03-21T10:23:16.794Z,16.73
2023-03-21T10:28:22.120Z,16.54
2023-03-21T10:33:28.697Z,15.98
2023-03-21T10:38:33.020Z,15.49
2023-03-21T10:43:38.726Z,15.32
2023-03-21T10:48:46.162Z,15.37
2023-03-21T10:53:55.953Z,15.45
2023-03-21T10:59:00.961Z,15.40
2023-03-21T11:04:09.484Z,15.17
2023-03-21T11:09:17.528Z,15.47
2023-03-21T11:14:34.350Z,16.51
2023-03-21T11:19:37.460Z,16.61
2023-03-21T11:24:42.914Z,16.64
2023-03-21T11:29:48.866Z,16.85
2023-03-21T11:34:57.752Z,16.11
2023-03-21T11:40:19.198Z,16.26
2023-03-21T11:45:24.433Z,16.57
2023-03-21T11:50:32.610Z,16.33
2023-03-21T11:55:51.242Z,15.44
2023-03-21T12:01:03.302Z,16.18
2023-03-21T12:06:17.398Z,16.90
2023-03-21T12:11:30.545Z,17.43
2023-03-21T12:16:45.229Z,16.95
2023-03-21T12:22:00.169Z,17.01
2023-03-21T12:27:12.669Z,17.21
2023-03-21T12:32:26.238Z,15.87
2023-03-21T12:37:38.399Z,15.55
2023-03-21T12:42:59.120Z,15.18
2023-03-21T12:48:09.181Z,16.55
2023-03-21T12:53:36.038Z,15.88
2023-03-21T12:58:48.309Z,15.58
2023-03-21T13:03:59.266Z,16.04
2023-03-21T13:09:07.953Z,15.99
2023-03-21T13:14:18.743Z,15.74
2023-03-21T13:19:29.852Z,16.49
2023-03-21T13:24:39.229Z,15.80
2023-03-21T13:29:49.736Z,16.60
2023-03-21T13:34:57.202Z,16.10
2023-03-21T13:40:09.368Z,16.49
2023-03-21T13:45:26.537Z,16.33
2023-03-21T13:50:37.490Z,16.94
2023-03-21T13:55:43.199Z,16.61
2023-03-21T14:01:07.875Z,16.68
2023-03-21T14:06:12.276Z,16.34
2023-03-21T14:11:18.756Z,15.94
2023-03-21T14:16:28.519Z,16.66
2023-03-21T14:21:33.869Z,15.75
2023-03-21T14:26:41.172Z,16.05
2023-03-21T14:31:46.836Z,15.47
2023-03-21T14:36:57.785Z,16.02
2023-03-21T14:42:05.305Z,16.07
2023-03-21T14:47:19.046Z,15.88
2023-03-21T14:52:25.753Z,15.93
2023-03-21T14:57:31.775Z,16.44
2023-03-21T15:02:39.155Z,16.91
2023-03-21T15:07:42.152Z,16.45
2023-03-21T15:12:52.398Z,15.95
2023-03-21T15:18:01.606Z,15.67
2023-03-21T15:23:12.201Z,16.22
2023-03-21T15:28:15.372Z,15.97
2023-03-21T15:33:20.588Z,15.74
2023-03-21T15:38:29.306Z,15.76
2023-03-21T15:43:40.841Z,15.30
2023-03-21T15:48:45.827Z,16.18
2023-03-21T15:53:49.700Z,15.95
2023-03-21T15:58:53.778Z,15.48
2023-03-21T16:03:59.705Z,15.57
2023-03-21T16:09:14.059Z,15.11
2023-03-21T16:14:17.576Z,15.49
2023-03-21T16:19:22.004Z,15.19
2023-03-21T16:24:24.759Z,15.42
2023-03-21T16:29:27.480Z,15.76
2023-03-21T16:34:32.160Z,15.77
2023-03-21T16:39:34.939Z,14.98
2023-03-21T16:44:39.131Z,15.91
2023-03-21T16:49:43.565Z,15.96
2023-03-21T16:54:46.287Z,15.83
2023-03-21T16:59:49.078Z,15.58
2023-03-21T17:04:53.341Z,15.41
2023-03-21T17:09:56.321Z,15.42
2023-03-21T17:14:59.044Z,15.43
2023-03-21T17:20:11.227Z,15.18
2023-03-21T17:25:14.076Z,15.36
2023-03-21T17:30:25.294Z,15.24
2023-03-21T17:35:29.838Z,15.15
2023-03-21T17:40:34.486Z,15.31
2023-03-21T17:45:37.261Z,15.27
2023-03-21T17:50:41.429Z,15.10
2023-03-21T17:55:44.299Z,15.23
2023-03-21T18:00:47.418Z,15.17
2023-03-21T18:05:52.026Z,15.42
2023-03-21T18:10:54.770Z,15.12
2023-03-21T18:15:59.785Z,15.24
2023-03-21T18:21:04.295Z,15.08
2023-03-21T18:26:07.928Z,15.24
2023-03-21T18:31:19.429Z,15.39
2023-03-21T18:36:26.330Z,15.34
2023-03-21T18:41:30.993Z,15.27
2023-03-21T18:46:33.920Z,15.23
2023-03-21T18:51:38.091Z,15.22
2023-03-21T19:02:06.038Z,15.38
2023-03-21T19:07:10.394Z,15.34
2023-03-21T19:12:13.229Z,15.34
2023-03-21T19:18:07.183Z,15.49
2023-03-21T19:22:40.447Z,15.64
2023-03-21T19:27:43.853Z,15.61
2023-03-21T19:32:47.118Z,15.53
2023-03-21T19:37:51.368Z,15.58
2023-03-21T19:42:54.169Z,15.85
2023-03-21T19:47:58.338Z,15.66
2023-03-21T19:53:02.442Z,15.43
2023-03-21T19:58:06.031Z,16.20
2023-03-21T20:03:09.713Z,15.97
2023-03-21T20:08:14.442Z,15.81
2023-03-21T20:13:17.238Z,15.21
2023-03-21T20:18:20.630Z,15.09
2023-03-21T20:23:24.762Z,15.61
2023-03-21T20:28:28.961Z,14.69
2023-03-21T20:33:32.800Z,14.49
2023-03-21T20:38:39.454Z,15.52
2023-03-21T20:49:06.575Z,15.52
2023-03-21T20:54:11.149Z,14.96
2023-03-21T20:59:23.200Z,15.96
2023-03-21T21:04:47.227Z,15.80
2023-03-21T21:09:55.482Z,15.38
2023-03-21T21:14:58.264Z,15.83
2023-03-21T21:20:12.214Z,16.17
2023-03-21T21:25:17.390Z,14.98
2023-03-21T21:30:29.942Z,15.32
2023-03-21T21:35:33.523Z,15.66
2023-03-21T21:40:38.044Z,15.07
2023-03-21T21:45:41.595Z,15.90
2023-03-21T21:50:44.523Z,16.01
2023-03-21T21:55:49.486Z,15.85
2023-03-21T22:00:52.292Z,15.80
2023-03-21T22:06:02.804Z,15.41
2023-03-21T22:11:07.565Z,14.87
2023-03-21T22:16:11.146Z,15.07
2023-03-21T22:21:14.046Z,16.08
2023-03-21T22:26:18.226Z,15.15
2023-03-21T22:31:22.579Z,15.30
2023-03-21T22:36:25.419Z,15.37
2023-03-21T22:41:29.540Z,15.07
2023-03-21T22:46:32.248Z,14.97
2023-03-21T22:51:35.198Z,15.29
2023-03-21T22:56:39.343Z,15.17
2023-03-21T23:01:42.097Z,14.71
2023-03-21T23:06:46.131Z,14.42
2023-03-21T23:11:50.282Z,14.31
2023-03-21T23:16:54.796Z,14.28
2023-03-21T23:21:58.534Z,14.33
2023-03-21T23:27:02.937Z,14.04
2023-03-21T23:32:06.185Z,14.31
2023-03-21T23:37:09.322Z,13.57
2023-03-21T23:42:13.604Z,14.55
2023-03-21T23:47:16.646Z,13.55
2023-03-21T23:52:19.787Z,13.88
2023-03-21T23:57:24.088Z,14.14
